sensor_id;sensor_type;location;lat;lon;timestamp;temperature;humidity
11474;DHT22;5793;52.238;13.438;2022-08-07T00:01:24;11.30;99.90
11474;DHT22;5793;52.238;13.438;2022-08-07T00:04:12;11.20;99.90
11474;DHT22;5793;52.238;13.438;2022-08-07T00:06:50;11.20;99.90
11474;DHT22;5793;52.238;13.438;2022-08-07T00:09:20;11.10;99.90
11474;DHT22;5793;52.238;13.438;2022-08-07T00:11:59;11.00;99.90
11474;DHT22;5793;52.238;13.438;2022-08-07T00:14:27;11.00;99.90
11474;DHT22;5793;52.238;13.438;2022-08-07T00:16:57;11.10;99.90
11474;DHT22;5793;52.238;13.438;2022-08-07T00:19:28;11.10;99.90
11474;DHT22;5793;52.238;13.438;2022-08-07T00:22:17;11.00;99.90
11474;DHT22;5793;52.238;13.438;2022-08-07T00:25:03;11.00;99.90
11474;DHT22;5793;52.238;13.438;2022-08-07T00:27:32;10.90;99.90
11474;DHT22;5793;52.238;13.438;2022-08-07T00:30:19;10.90;99.90
11474;DHT22;5793;52.238;13.438;2022-08-07T00:32:54;10.90;99.90
11474;DHT22;5793;52.238;13.438;2022-08-07T00:35:23;10.90;99.90
11474;DHT22;5793;52.238;13.438;2022-08-07T00:37:52;11.00;99.90
11474;DHT22;5793;52.238;13.438;2022-08-07T00:40:21;11.10;99.90
11474;DHT22;5793;52.238;13.438;2022-08-07T00:43:06;11.10;99.90
11474;DHT22;5793;52.238;13.438;2022-08-07T00:45:36;11.00;99.90
11474;DHT22;5793;52.238;13.438;2022-08-07T00:48:04;10.90;99.90
11474;DHT22;5793;52.238;13.438;2022-08-07T00:50:44;11.00;99.90
11474;DHT22;5793;52.238;13.438;2022-08-07T00:53:17;11.00;99.90
11474;DHT22;5793;52.238;13.438;2022-08-07T00:55:47;10.90;99.90
11474;DHT22;5793;52.238;13.438;2022-08-07T00:58:29;10.90;99.90
11474;DHT22;5793;52.238;13.438;2022-08-07T01:00:58;10.80;99.90
11474;DHT22;5793;52.238;13.438;2022-08-07T01:03:27;10.70;99.90
11474;DHT22;5793;52.238;13.438;2022-08-07T01:06:15;10.60;99.90
11474;DHT22;5793;52.238;13.438;2022-08-07T01:08:44;10.60;99.90
11474;DHT22;5793;52.238;13.438;2022-08-07T01:11:22;10.50;99.90
11474;DHT22;5793;52.238;13.438;2022-08-07T01:14:10;10.50;99.90
11474;DHT22;5793;52.238;13.438;2022-08-07T01:16:42;10.40;99.90
11474;DHT22;5793;52.238;13.438;2022-08-07T01:19:13;10.40;99.90
11474;DHT22;5793;52.238;13.438;2022-08-07T01:21:48;10.30;99.90
11474;DHT22;5793;52.238;13.438;2022-08-07T01:24:19;10.20;99.90
11474;DHT22;5793;52.238;13.438;2022-08-07T01:26:48;10.20;99.90
11474;DHT22;5793;52.238;13.438;2022-08-07T01:29:18;10.10;99.90
11474;DHT22;5793;52.238;13.438;2022-08-07T01:31:48;10.10;99.90
11474;DHT22;5793;52.238;13.438;2022-08-07T01:34:16;10.10;99.90
11474;DHT22;5793;52.238;13.438;2022-08-07T01:36:47;10.10;99.90
11474;DHT22;5793;52.238;13.438;2022-08-07T01:39:23;10.00;99.90
11474;DHT22;5793;52.238;13.438;2022-08-07T01:42:07;10.10;99.90
11474;DHT22;5793;52.238;13.438;2022-08-07T01:44:55;10.10;99.90
11474;DHT22;5793;52.238;13.438;2022-08-07T01:47:24;10.00;99.90
11474;DHT22;5793;52.238;13.438;2022-08-07T01:50:11;10.00;99.90
11474;DHT22;5793;52.238;13.438;2022-08-07T01:52:42;10.10;99.90
11474;DHT22;5793;52.238;13.438;2022-08-07T01:55:23;10.20;99.90
11474;DHT22;5793;52.238;13.438;2022-08-07T01:57:56;10.30;99.90
11474;DHT22;5793;52.238;13.438;2022-08-07T02:00:33;10.20;99.90
11474;DHT22;5793;52.238;13.438;2022-08-07T02:03:19;10.10;99.90
11474;DHT22;5793;52.238;13.438;2022-08-07T02:06:11;10.00;99.90
11474;DHT22;5793;52.238;13.438;2022-08-07T02:09:01;9.90;99.90
11474;DHT22;5793;52.238;13.438;2022-08-07T02:11:32;9.80;99.90
11474;DHT22;5793;52.238;13.438;2022-08-07T02:14:20;9.80;99.90
11474;DHT22;5793;52.238;13.438;2022-08-07T02:17:07;9.70;99.90
11474;DHT22;5793;52.238;13.438;2022-08-07T02:19:37;9.60;99.90
11474;DHT22;5793;52.238;13.438;2022-08-07T02:22:26;9.60;99.90
11474;DHT22;5793;52.238;13.438;2022-08-07T02:24:57;9.60;99.90
11474;DHT22;5793;52.238;13.438;2022-08-07T02:27:27;9.60;99.90
11474;DHT22;5793;52.238;13.438;2022-08-07T02:30:01;9.60;99.90
11474;DHT22;5793;52.238;13.438;2022-08-07T02:32:35;9.70;99.90
11474;DHT22;5793;52.238;13.438;2022-08-07T02:35:08;9.80;99.90
11474;DHT22;5793;52.238;13.438;2022-08-07T02:37:47;9.80;99.90
11474;DHT22;5793;52.238;13.438;2022-08-07T02:40:17;9.90;99.90
11474;DHT22;5793;52.238;13.438;2022-08-07T02:42:59;9.80;99.90
11474;DHT22;5793;52.238;13.438;2022-08-07T02:45:36;9.70;99.90
11474;DHT22;5793;52.238;13.438;2022-08-07T02:48:25;9.70;99.90
11474;DHT22;5793;52.238;13.438;2022-08-07T02:50:54;9.60;99.90
11474;DHT22;5793;52.238;13.438;2022-08-07T02:53:25;9.50;99.90
11474;DHT22;5793;52.238;13.438;2022-08-07T02:55:58;9.40;99.90
11474;DHT22;5793;52.238;13.438;2022-08-07T02:58:32;9.40;99.90
11474;DHT22;5793;52.238;13.438;2022-08-07T03:01:01;9.50;99.90
11474;DHT22;5793;52.238;13.438;2022-08-07T03:03:32;9.40;99.90
11474;DHT22;5793;52.238;13.438;2022-08-07T03:06:17;9.40;99.90
11474;DHT22;5793;52.238;13.438;2022-08-07T03:08:59;9.30;99.90
11474;DHT22;5793;52.238;13.438;2022-08-07T03:11:30;9.20;99.90
11474;DHT22;5793;52.238;13.438;2022-08-07T03:14:04;9.20;99.90
11474;DHT22;5793;52.238;13.438;2022-08-07T03:16:33;9.10;99.90
11474;DHT22;5793;52.238;13.438;2022-08-07T03:19:04;9.10;99.90
11474;DHT22;5793;52.238;13.438;2022-08-07T03:21:34;9.00;99.90
11474;DHT22;5793;52.238;13.438;2022-08-07T03:24:03;9.00;99.90
11474;DHT22;5793;52.238;13.438;2022-08-07T03:26:53;9.00;99.90
11474;DHT22;5793;52.238;13.438;2022-08-07T03:29:25;9.00;99.90
11474;DHT22;5793;52.238;13.438;2022-08-07T03:31:54;9.00;99.90
11474;DHT22;5793;52.238;13.438;2022-08-07T03:34:26;9.00;99.90
11474;DHT22;5793;52.238;13.438;2022-08-07T03:36:55;9.00;99.90
11474;DHT22;5793;52.238;13.438;2022-08-07T03:39:24;9.00;99.90
11474;DHT22;5793;52.238;13.438;2022-08-07T03:42:15;9.00;99.90
11474;DHT22;5793;52.238;13.438;2022-08-07T03:44:46;9.10;99.90
11474;DHT22;5793;52.238;13.438;2022-08-07T03:47:23;9.00;99.90
11474;DHT22;5793;52.238;13.438;2022-08-07T03:49:56;9.00;99.90
11474;DHT22;5793;52.238;13.438;2022-08-07T03:52:26;8.90;99.90
11474;DHT22;5793;52.238;13.438;2022-08-07T03:54:56;8.80;99.90
11474;DHT22;5793;52.238;13.438;2022-08-07T03:57:35;8.80;99.90
11474;DHT22;5793;52.238;13.438;2022-08-07T04:00:23;8.90;99.90
11474;DHT22;5793;52.238;13.438;2022-08-07T04:02:56;8.90;99.90
11474;DHT22;5793;52.238;13.438;2022-08-07T04:05:25;9.00;99.90
11474;DHT22;5793;52.238;13.438;2022-08-07T04:08:08;9.10;99.90
11474;DHT22;5793;52.238;13.438;2022-08-07T04:10:38;9.20;99.90
11474;DHT22;5793;52.238;13.438;2022-08-07T04:13:12;9.30;99.90
11474;DHT22;5793;52.238;13.438;2022-08-07T04:15:44;9.40;99.90
11474;DHT22;5793;52.238;13.438;2022-08-07T04:18:15;9.30;99.90
11474;DHT22;5793;52.238;13.438;2022-08-07T04:21:03;9.20;99.90
11474;DHT22;5793;52.238;13.438;2022-08-07T04:23:33;9.20;99.90
11474;DHT22;5793;52.238;13.438;2022-08-07T04:26:22;9.20;99.90
11474;DHT22;5793;52.238;13.438;2022-08-07T04:28:55;9.20;99.90
11474;DHT22;5793;52.238;13.438;2022-08-07T04:31:24;9.10;99.90
11474;DHT22;5793;52.238;13.438;2022-08-07T04:34:12;9.10;99.90
11474;DHT22;5793;52.238;13.438;2022-08-07T04:36:43;9.20;99.90
11474;DHT22;5793;52.238;13.438;2022-08-07T04:39:15;9.30;99.90
11474;DHT22;5793;52.238;13.438;2022-08-07T04:41:51;9.30;99.90
11474;DHT22;5793;52.238;13.438;2022-08-07T04:44:20;9.30;99.90
11474;DHT22;5793;52.238;13.438;2022-08-07T04:47:04;9.30;99.90
11474;DHT22;5793;52.238;13.438;2022-08-07T04:49:41;9.30;99.90
11474;DHT22;5793;52.238;13.438;2022-08-07T04:52:35;9.60;99.90
11474;DHT22;5793;52.238;13.438;2022-08-07T04:55:22;9.60;99.90
11474;DHT22;5793;52.238;13.438;2022-08-07T04:58:18;9.60;99.90
11474;DHT22;5793;52.238;13.438;2022-08-07T05:01:13;9.60;99.90
11474;DHT22;5793;52.238;13.438;2022-08-07T05:03:48;9.70;99.90
11474;DHT22;5793;52.238;13.438;2022-08-07T05:06:37;9.80;99.90
11474;DHT22;5793;52.238;13.438;2022-08-07T05:09:23;9.80;99.90
11474;DHT22;5793;52.238;13.438;2022-08-07T05:12:10;10.00;99.90
11474;DHT22;5793;52.238;13.438;2022-08-07T05:14:58;10.30;99.90
11474;DHT22;5793;52.238;13.438;2022-08-07T05:17:32;10.50;99.90
11474;DHT22;5793;52.238;13.438;2022-08-07T05:20:24;10.50;99.90
11474;DHT22;5793;52.238;13.438;2022-08-07T05:22:57;10.60;99.90
11474;DHT22;5793;52.238;13.438;2022-08-07T05:25:27;10.70;99.90
11474;DHT22;5793;52.238;13.438;2022-08-07T05:28:17;10.90;99.90
11474;DHT22;5793;52.238;13.438;2022-08-07T05:30:53;11.10;99.90
11474;DHT22;5793;52.238;13.438;2022-08-07T05:33:24;11.10;99.90
11474;DHT22;5793;52.238;13.438;2022-08-07T05:35:54;11.20;99.90
11474;DHT22;5793;52.238;13.438;2022-08-07T05:38:22;11.30;99.90
11474;DHT22;5793;52.238;13.438;2022-08-07T05:41:11;11.40;99.90
11474;DHT22;5793;52.238;13.438;2022-08-07T05:43:46;11.50;99.90
11474;DHT22;5793;52.238;13.438;2022-08-07T05:46:35;11.70;99.90
11474;DHT22;5793;52.238;13.438;2022-08-07T05:49:06;11.90;99.90
11474;DHT22;5793;52.238;13.438;2022-08-07T05:51:38;12.00;99.90
11474;DHT22;5793;52.238;13.438;2022-08-07T05:54:08;12.10;99.90
11474;DHT22;5793;52.238;13.438;2022-08-07T05:56:57;12.20;99.90
11474;DHT22;5793;52.238;13.438;2022-08-07T05:59:25;12.30;99.90
11474;DHT22;5793;52.238;13.438;2022-08-07T06:01:53;12.50;99.90
11474;DHT22;5793;52.238;13.438;2022-08-07T06:04:26;12.60;99.90
11474;DHT22;5793;52.238;13.438;2022-08-07T06:06:56;12.70;99.90
11474;DHT22;5793;52.238;13.438;2022-08-07T06:09:29;12.80;99.90
11474;DHT22;5793;52.238;13.438;2022-08-07T06:12:18;13.00;99.90
11474;DHT22;5793;52.238;13.438;2022-08-07T06:14:53;13.10;99.90
11474;DHT22;5793;52.238;13.438;2022-08-07T06:17:31;13.30;99.90
11474;DHT22;5793;52.238;13.438;2022-08-07T06:20:08;13.40;99.90
11474;DHT22;5793;52.238;13.438;2022-08-07T06:22:58;13.50;99.90
11474;DHT22;5793;52.238;13.438;2022-08-07T06:25:46;13.70;99.90
11474;DHT22;5793;52.238;13.438;2022-08-07T06:28:20;13.80;99.90
11474;DHT22;5793;52.238;13.438;2022-08-07T06:30:54;13.80;99.90
11474;DHT22;5793;52.238;13.438;2022-08-07T06:33:24;13.90;99.90
11474;DHT22;5793;52.238;13.438;2022-08-07T06:35:56;14.20;99.90
11474;DHT22;5793;52.238;13.438;2022-08-07T06:38:40;14.30;99.90
11474;DHT22;5793;52.238;13.438;2022-08-07T06:41:32;14.50;99.90
11474;DHT22;5793;52.238;13.438;2022-08-07T06:44:22;14.70;99.90
11474;DHT22;5793;52.238;13.438;2022-08-07T06:46:56;14.90;99.90
11474;DHT22;5793;52.238;13.438;2022-08-07T06:49:40;15.10;99.90
11474;DHT22;5793;52.238;13.438;2022-08-07T06:52:28;15.30;99.90
11474;DHT22;5793;52.238;13.438;2022-08-07T06:55:04;15.40;99.90
11474;DHT22;5793;52.238;13.438;2022-08-07T06:57:54;15.60;99.90
11474;DHT22;5793;52.238;13.438;2022-08-07T07:00:26;15.70;99.90
11474;DHT22;5793;52.238;13.438;2022-08-07T07:02:54;16.00;99.90
11474;DHT22;5793;52.238;13.438;2022-08-07T07:05:27;16.10;99.90
11474;DHT22;5793;52.238;13.438;2022-08-07T07:08:16;16.30;99.90
11474;DHT22;5793;52.238;13.438;2022-08-07T07:10:52;16.50;99.90
11474;DHT22;5793;52.238;13.438;2022-08-07T07:13:28;16.70;99.90
11474;DHT22;5793;52.238;13.438;2022-08-07T07:16:19;16.90;99.90
11474;DHT22;5793;52.238;13.438;2022-08-07T07:18:50;17.10;99.90
11474;DHT22;5793;52.238;13.438;2022-08-07T07:21:23;17.40;99.90
11474;DHT22;5793;52.238;13.438;2022-08-07T07:24:14;17.60;99.90
11474;DHT22;5793;52.238;13.438;2022-08-07T07:26:43;17.80;99.90
11474;DHT22;5793;52.238;13.438;2022-08-07T07:29:21;17.90;99.90
11474;DHT22;5793;52.238;13.438;2022-08-07T07:32:12;18.10;99.90
11474;DHT22;5793;52.238;13.438;2022-08-07T07:34:44;18.30;99.90
11474;DHT22;5793;52.238;13.438;2022-08-07T07:37:15;18.50;99.90
11474;DHT22;5793;52.238;13.438;2022-08-07T07:40:07;18.70;99.90
11474;DHT22;5793;52.238;13.438;2022-08-07T07:42:42;18.90;99.90
11474;DHT22;5793;52.238;13.438;2022-08-07T07:45:22;19.10;99.90
11474;DHT22;5793;52.238;13.438;2022-08-07T07:48:15;19.30;99.90
11474;DHT22;5793;52.238;13.438;2022-08-07T07:51:02;19.50;99.90
11474;DHT22;5793;52.238;13.438;2022-08-07T07:53:36;19.70;99.90
11474;DHT22;5793;52.238;13.438;2022-08-07T07:56:20;19.90;99.90
11474;DHT22;5793;52.238;13.438;2022-08-07T07:58:57;20.10;99.90
11474;DHT22;5793;52.238;13.438;2022-08-07T08:01:28;20.40;99.90
11474;DHT22;5793;52.238;13.438;2022-08-07T08:04:17;20.60;99.90
11474;DHT22;5793;52.238;13.438;2022-08-07T08:06:52;20.70;99.90
11474;DHT22;5793;52.238;13.438;2022-08-07T08:09:24;21.00;99.90
11474;DHT22;5793;52.238;13.438;2022-08-07T08:11:57;21.30;99.90
11474;DHT22;5793;52.238;13.438;2022-08-07T08:14:32;21.70;99.90
11474;DHT22;5793;52.238;13.438;2022-08-07T08:17:03;22.60;99.90
11474;DHT22;5793;52.238;13.438;2022-08-07T08:19:56;23.70;96.70
11474;DHT22;5793;52.238;13.438;2022-08-07T08:22:46;23.80;93.40
11474;DHT22;5793;52.238;13.438;2022-08-07T08:25:38;23.70;91.30
11474;DHT22;5793;52.238;13.438;2022-08-07T08:28:36;23.70;91.80
11474;DHT22;5793;52.238;13.438;2022-08-07T08:31:14;24.10;86.90
11474;DHT22;5793;52.238;13.438;2022-08-07T08:34:05;24.80;84.70
11474;DHT22;5793;52.238;13.438;2022-08-07T08:36:38;27.40;72.50
11474;DHT22;5793;52.238;13.438;2022-08-07T08:39:12;31.20;57.90
11474;DHT22;5793;52.238;13.438;2022-08-07T08:41:50;34.10;47.70
11474;DHT22;5793;52.238;13.438;2022-08-07T08:44:31;36.50;44.60
11474;DHT22;5793;52.238;13.438;2022-08-07T08:47:15;38.00;39.20
11474;DHT22;5793;52.238;13.438;2022-08-07T08:49:58;37.90;38.80
11474;DHT22;5793;52.238;13.438;2022-08-07T08:52:33;34.50;42.60
11474;DHT22;5793;52.238;13.438;2022-08-07T08:55:24;31.20;46.60
11474;DHT22;5793;52.238;13.438;2022-08-07T08:58:16;28.90;49.00
11474;DHT22;5793;52.238;13.438;2022-08-07T09:01:03;29.90;48.40
11474;DHT22;5793;52.238;13.438;2022-08-07T09:03:49;34.30;41.60
11474;DHT22;5793;52.238;13.438;2022-08-07T09:06:32;37.70;38.50
11474;DHT22;5793;52.238;13.438;2022-08-07T09:09:07;39.20;35.40
11474;DHT22;5793;52.238;13.438;2022-08-07T09:12:00;41.20;35.10
11474;DHT22;5793;52.238;13.438;2022-08-07T09:15:04;41.60;33.00
11474;DHT22;5793;52.238;13.438;2022-08-07T09:18:20;42.70;31.60
11474;DHT22;5793;52.238;13.438;2022-08-07T09:20:58;42.70;29.80
11474;DHT22;5793;52.238;13.438;2022-08-07T09:23:46;43.20;30.30
11474;DHT22;5793;52.238;13.438;2022-08-07T09:26:43;44.00;30.00
11474;DHT22;5793;52.238;13.438;2022-08-07T09:29:25;44.60;29.40
11474;DHT22;5793;52.238;13.438;2022-08-07T09:32:22;44.50;29.50
11474;DHT22;5793;52.238;13.438;2022-08-07T09:35:02;45.00;28.80
11474;DHT22;5793;52.238;13.438;2022-08-07T09:38:05;45.30;28.50
11474;DHT22;5793;52.238;13.438;2022-08-07T09:40:46;45.00;28.70
11474;DHT22;5793;52.238;13.438;2022-08-07T09:43:25;44.70;28.50
11474;DHT22;5793;52.238;13.438;2022-08-07T09:46:22;43.70;29.40
11474;DHT22;5793;52.238;13.438;2022-08-07T09:49:23;43.90;28.70
11474;DHT22;5793;52.238;13.438;2022-08-07T09:52:20;44.20;28.50
11474;DHT22;5793;52.238;13.438;2022-08-07T09:55:14;44.00;29.20
11474;DHT22;5793;52.238;13.438;2022-08-07T09:58:34;44.20;28.80
11474;DHT22;5793;52.238;13.438;2022-08-07T10:01:35;44.30;27.30
11474;DHT22;5793;52.238;13.438;2022-08-07T10:04:30;44.70;28.80
11474;DHT22;5793;52.238;13.438;2022-08-07T10:07:24;44.40;28.10
11474;DHT22;5793;52.238;13.438;2022-08-07T10:10:13;44.50;28.50
11474;DHT22;5793;52.238;13.438;2022-08-07T10:13:13;44.60;28.30
11474;DHT22;5793;52.238;13.438;2022-08-07T10:16:14;45.00;27.60
11474;DHT22;5793;52.238;13.438;2022-08-07T10:19:12;45.20;27.50
11474;DHT22;5793;52.238;13.438;2022-08-07T10:21:56;43.10;28.10
11474;DHT22;5793;52.238;13.438;2022-08-07T10:25:03;43.40;28.80
11474;DHT22;5793;52.238;13.438;2022-08-07T10:27:44;43.40;29.10
11474;DHT22;5793;52.238;13.438;2022-08-07T10:30:18;43.10;27.70
11474;DHT22;5793;52.238;13.438;2022-08-07T10:33:10;43.70;27.90
11474;DHT22;5793;52.238;13.438;2022-08-07T10:35:52;43.30;28.00
11474;DHT22;5793;52.238;13.438;2022-08-07T10:38:46;43.40;28.20
11474;DHT22;5793;52.238;13.438;2022-08-07T10:41:28;43.60;27.50
11474;DHT22;5793;52.238;13.438;2022-08-07T10:44:23;43.50;28.30
11474;DHT22;5793;52.238;13.438;2022-08-07T10:50:20;42.70;28.60
11474;DHT22;5793;52.238;13.438;2022-08-07T10:52:57;41.60;30.00
11474;DHT22;5793;52.238;13.438;2022-08-07T10:55:42;40.30;30.80
11474;DHT22;5793;52.238;13.438;2022-08-07T10:58:25;38.80;33.30
11474;DHT22;5793;52.238;13.438;2022-08-07T11:01:20;36.30;34.40
11474;DHT22;5793;52.238;13.438;2022-08-07T11:04:20;33.90;37.00
11474;DHT22;5793;52.238;13.438;2022-08-07T11:07:03;32.20;39.00
11474;DHT22;5793;52.238;13.438;2022-08-07T11:09:54;31.10;41.00
11474;DHT22;5793;52.238;13.438;2022-08-07T11:12:39;30.40;42.70
11474;DHT22;5793;52.238;13.438;2022-08-07T11:15:13;29.60;42.50
11474;DHT22;5793;52.238;13.438;2022-08-07T11:17:48;29.30;44.70
11474;DHT22;5793;52.238;13.438;2022-08-07T11:20:22;29.30;44.80
11474;DHT22;5793;52.238;13.438;2022-08-07T11:22:57;29.10;43.00
11474;DHT22;5793;52.238;13.438;2022-08-07T11:25:33;28.80;42.40
11474;DHT22;5793;52.238;13.438;2022-08-07T11:28:18;28.70;45.00
11474;DHT22;5793;52.238;13.438;2022-08-07T11:30:55;28.70;44.30
11474;DHT22;5793;52.238;13.438;2022-08-07T11:33:28;28.80;43.90
11474;DHT22;5793;52.238;13.438;2022-08-07T11:36:38;28.90;44.80
11474;DHT22;5793;52.238;13.438;2022-08-07T11:39:15;29.10;45.40
11474;DHT22;5793;52.238;13.438;2022-08-07T11:41:56;29.40;44.90
11474;DHT22;5793;52.238;13.438;2022-08-07T11:44:38;29.40;43.30
11474;DHT22;5793;52.238;13.438;2022-08-07T11:47:47;29.40;44.10
11474;DHT22;5793;52.238;13.438;2022-08-07T11:50:43;29.30;43.70
11474;DHT22;5793;52.238;13.438;2022-08-07T11:53:33;29.20;45.30
11474;DHT22;5793;52.238;13.438;2022-08-07T11:56:24;29.10;43.00
11474;DHT22;5793;52.238;13.438;2022-08-07T11:59:05;28.90;45.30
11474;DHT22;5793;52.238;13.438;2022-08-07T12:02:06;28.80;44.10
11474;DHT22;5793;52.238;13.438;2022-08-07T12:05:01;28.60;44.70
11474;DHT22;5793;52.238;13.438;2022-08-07T12:07:40;28.70;44.90
11474;DHT22;5793;52.238;13.438;2022-08-07T12:10:32;28.90;44.40
11474;DHT22;5793;52.238;13.438;2022-08-07T12:13:11;29.30;45.60
11474;DHT22;5793;52.238;13.438;2022-08-07T12:15:54;29.50;43.20
11474;DHT22;5793;52.238;13.438;2022-08-07T12:18:38;29.60;45.00
11474;DHT22;5793;52.238;13.438;2022-08-07T12:21:25;29.80;43.60
11474;DHT22;5793;52.238;13.438;2022-08-07T12:24:19;29.90;42.90
11474;DHT22;5793;52.238;13.438;2022-08-07T12:27:08;29.60;42.70
11474;DHT22;5793;52.238;13.438;2022-08-07T12:29:48;29.60;45.00
11474;DHT22;5793;52.238;13.438;2022-08-07T12:32:20;29.40;43.90
11474;DHT22;5793;52.238;13.438;2022-08-07T12:34:54;29.30;44.00
11474;DHT22;5793;52.238;13.438;2022-08-07T12:37:24;29.00;44.40
11474;DHT22;5793;52.238;13.438;2022-08-07T12:40:18;28.50;43.80
11474;DHT22;5793;52.238;13.438;2022-08-07T12:43:08;27.80;45.60
11474;DHT22;5793;52.238;13.438;2022-08-07T12:46:11;27.30;46.70
11474;DHT22;5793;52.238;13.438;2022-08-07T12:48:49;26.80;47.30
11474;DHT22;5793;52.238;13.438;2022-08-07T12:51:25;26.30;49.20
11474;DHT22;5793;52.238;13.438;2022-08-07T12:54:22;26.00;48.50
11474;DHT22;5793;52.238;13.438;2022-08-07T12:57:05;25.80;49.10
11474;DHT22;5793;52.238;13.438;2022-08-07T12:59:36;25.50;50.90
11474;DHT22;5793;52.238;13.438;2022-08-07T13:02:41;25.40;50.50
11474;DHT22;5793;52.238;13.438;2022-08-07T13:05:24;25.30;52.90
11474;DHT22;5793;52.238;13.438;2022-08-07T13:08:33;25.20;51.20
11474;DHT22;5793;52.238;13.438;2022-08-07T13:11:24;25.20;50.20
11474;DHT22;5793;52.238;13.438;2022-08-07T13:14:23;25.20;49.70
11474;DHT22;5793;52.238;13.438;2022-08-07T13:17:00;25.00;50.40
11474;DHT22;5793;52.238;13.438;2022-08-07T13:19:38;24.80;50.80
11474;DHT22;5793;52.238;13.438;2022-08-07T13:22:23;24.80;51.50
11474;DHT22;5793;52.238;13.438;2022-08-07T13:25:00;25.10;51.70
11474;DHT22;5793;52.238;13.438;2022-08-07T13:27:36;25.30;52.60
11474;DHT22;5793;52.238;13.438;2022-08-07T13:30:26;25.60;49.90
11474;DHT22;5793;52.238;13.438;2022-08-07T13:33:16;25.70;47.60
11474;DHT22;5793;52.238;13.438;2022-08-07T13:36:11;25.90;49.00
11474;DHT22;5793;52.238;13.438;2022-08-07T13:38:48;26.10;48.30
11474;DHT22;5793;52.238;13.438;2022-08-07T13:41:26;26.10;49.00
11474;DHT22;5793;52.238;13.438;2022-08-07T13:44:02;26.30;48.60
11474;DHT22;5793;52.238;13.438;2022-08-07T13:46:38;26.30;48.60
11474;DHT22;5793;52.238;13.438;2022-08-07T13:49:16;26.30;48.60
11474;DHT22;5793;52.238;13.438;2022-08-07T13:52:05;26.30;48.80
11474;DHT22;5793;52.238;13.438;2022-08-07T13:54:55;26.30;48.00
11474;DHT22;5793;52.238;13.438;2022-08-07T13:57:25;26.20;48.00
11474;DHT22;5793;52.238;13.438;2022-08-07T14:00:07;26.20;47.70
11474;DHT22;5793;52.238;13.438;2022-08-07T14:02:55;26.00;48.90
11474;DHT22;5793;52.238;13.438;2022-08-07T14:05:25;26.00;47.70
11474;DHT22;5793;52.238;13.438;2022-08-07T14:08:04;26.00;48.50
11474;DHT22;5793;52.238;13.438;2022-08-07T14:10:34;26.10;49.40
11474;DHT22;5793;52.238;13.438;2022-08-07T14:13:13;26.20;48.50
11474;DHT22;5793;52.238;13.438;2022-08-07T14:15:52;26.20;47.50
11474;DHT22;5793;52.238;13.438;2022-08-07T14:18:26;26.00;48.40
11474;DHT22;5793;52.238;13.438;2022-08-07T14:21:03;26.00;47.80
11474;DHT22;5793;52.238;13.438;2022-08-07T14:23:38;26.00;46.90
11474;DHT22;5793;52.238;13.438;2022-08-07T14:26:29;26.00;47.90
11474;DHT22;5793;52.238;13.438;2022-08-07T14:29:00;26.00;48.00
11474;DHT22;5793;52.238;13.438;2022-08-07T14:31:51;25.80;49.40
11474;DHT22;5793;52.238;13.438;2022-08-07T14:34:41;25.60;50.40
11474;DHT22;5793;52.238;13.438;2022-08-07T14:37:15;25.30;51.40
11474;DHT22;5793;52.238;13.438;2022-08-07T14:39:45;25.00;51.80
11474;DHT22;5793;52.238;13.438;2022-08-07T14:42:35;24.70;52.70
11474;DHT22;5793;52.238;13.438;2022-08-07T14:45:25;24.40;52.80
11474;DHT22;5793;52.238;13.438;2022-08-07T14:48:18;24.30;53.10
11474;DHT22;5793;52.238;13.438;2022-08-07T14:50:56;24.40;53.30
11474;DHT22;5793;52.238;13.438;2022-08-07T14:53:30;24.40;51.30
11474;DHT22;5793;52.238;13.438;2022-08-07T14:56:20;24.60;50.20
11474;DHT22;5793;52.238;13.438;2022-08-07T14:58:59;24.90;49.40
11474;DHT22;5793;52.238;13.438;2022-08-07T15:01:31;25.10;52.00
11474;DHT22;5793;52.238;13.438;2022-08-07T15:04:18;25.30;50.60
11474;DHT22;5793;52.238;13.438;2022-08-07T15:06:51;25.40;51.50
11474;DHT22;5793;52.238;13.438;2022-08-07T15:09:20;25.40;50.20
11474;DHT22;5793;52.238;13.438;2022-08-07T15:12:12;25.40;50.60
11474;DHT22;5793;52.238;13.438;2022-08-07T15:15:01;25.40;49.10
11474;DHT22;5793;52.238;13.438;2022-08-07T15:17:40;25.30;48.40
11474;DHT22;5793;52.238;13.438;2022-08-07T15:20:25;25.30;50.40
11474;DHT22;5793;52.238;13.438;2022-08-07T15:23:00;25.30;49.20
11474;DHT22;5793;52.238;13.438;2022-08-07T15:25:52;25.20;49.20
11474;DHT22;5793;52.238;13.438;2022-08-07T15:28:23;25.20;50.50
11474;DHT22;5793;52.238;13.438;2022-08-07T15:31:07;25.20;50.00
11474;DHT22;5793;52.238;13.438;2022-08-07T15:33:39;25.20;49.50
11474;DHT22;5793;52.238;13.438;2022-08-07T15:36:10;25.30;48.00
11474;DHT22;5793;52.238;13.438;2022-08-07T15:39:02;25.30;49.30
11474;DHT22;5793;52.238;13.438;2022-08-07T15:41:38;25.30;50.00
11474;DHT22;5793;52.238;13.438;2022-08-07T15:44:45;25.30;49.10
11474;DHT22;5793;52.238;13.438;2022-08-07T15:47:18;25.30;49.30
11474;DHT22;5793;52.238;13.438;2022-08-07T15:50:11;25.20;48.40
11474;DHT22;5793;52.238;13.438;2022-08-07T15:53:08;25.00;49.60
11474;DHT22;5793;52.238;13.438;2022-08-07T15:55:42;24.70;50.50
11474;DHT22;5793;52.238;13.438;2022-08-07T15:58:22;24.40;51.10
11474;DHT22;5793;52.238;13.438;2022-08-07T16:00:58;24.40;51.80
11474;DHT22;5793;52.238;13.438;2022-08-07T16:03:30;24.30;50.50
11474;DHT22;5793;52.238;13.438;2022-08-07T16:06:13;24.20;52.70
11474;DHT22;5793;52.238;13.438;2022-08-07T16:08:45;24.00;53.50
11474;DHT22;5793;52.238;13.438;2022-08-07T16:11:28;23.90;52.90
11474;DHT22;5793;52.238;13.438;2022-08-07T16:14:13;23.90;53.40
11474;DHT22;5793;52.238;13.438;2022-08-07T16:17:01;24.00;50.80
11474;DHT22;5793;52.238;13.438;2022-08-07T16:19:58;24.10;52.90
11474;DHT22;5793;52.238;13.438;2022-08-07T16:22:38;24.10;51.40
11474;DHT22;5793;52.238;13.438;2022-08-07T16:28:51;24.20;51.80
11474;DHT22;5793;52.238;13.438;2022-08-07T16:31:45;24.20;52.60
11474;DHT22;5793;52.238;13.438;2022-08-07T16:34:26;24.10;51.10
11474;DHT22;5793;52.238;13.438;2022-08-07T16:37:22;24.10;52.90
11474;DHT22;5793;52.238;13.438;2022-08-07T16:40:33;24.00;52.90
11474;DHT22;5793;52.238;13.438;2022-08-07T16:43:50;23.90;52.80
11474;DHT22;5793;52.238;13.438;2022-08-07T16:46:48;23.90;53.80
11474;DHT22;5793;52.238;13.438;2022-08-07T16:50:03;23.90;53.40
11474;DHT22;5793;52.238;13.438;2022-08-07T16:53:09;23.80;53.20
11474;DHT22;5793;52.238;13.438;2022-08-07T16:56:08;23.70;54.10
11474;DHT22;5793;52.238;13.438;2022-08-07T16:58:53;23.60;52.80
11474;DHT22;5793;52.238;13.438;2022-08-07T17:01:47;23.60;52.90
11474;DHT22;5793;52.238;13.438;2022-08-07T17:04:30;23.50;53.50
11474;DHT22;5793;52.238;13.438;2022-08-07T17:07:08;23.60;54.80
11474;DHT22;5793;52.238;13.438;2022-08-07T17:09:47;23.50;54.60